createdAt,value
2022-12-19T00:01:37.885Z,12.85
2022-12-19T00:04:08.992Z,13.57
2022-12-19T00:06:37.739Z,15.20
2022-12-19T00:09:05.410Z,12.53
2022-12-19T00:11:33.615Z,13.88
2022-12-19T00:14:01.113Z,13.27
2022-12-19T00:16:29.863Z,16.33
2022-12-19T00:18:59.196Z,11.60
2022-12-19T00:21:28.979Z,16.10
2022-12-19T00:23:56.201Z,15.80
2022-12-19T00:26:23.489Z,12.40
2022-12-19T00:28:57.066Z,16.23
2022-12-19T00:31:26.084Z,13.10
2022-12-19T00:33:53.487Z,15.57
2022-12-19T00:36:23.325Z,13.32
2022-12-19T00:38:52.128Z,13.13
2022-12-19T00:41:21.116Z,16.95
2022-12-19T00:43:48.351Z,13.65
2022-12-19T00:46:16.301Z,14.20
2022-12-19T00:48:43.186Z,15.23
2022-12-19T00:51:19.483Z,12.93
2022-12-19T00:53:48.377Z,12.88
2022-12-19T00:56:17.766Z,14.60
2022-12-19T00:58:47.344Z,14.40
2022-12-19T01:01:23.583Z,13.98
2022-12-19T01:04:25.872Z,13.45
2022-12-19T01:06:38.415Z,11.05
2022-12-19T01:09:06.328Z,15.05
2022-12-19T01:11:52.167Z,14.17
2022-12-19T01:14:22.972Z,10.35
2022-12-19T01:16:51.062Z,16.45
2022-12-19T01:19:19.513Z,13.27
2022-12-19T01:21:46.785Z,13.95
2022-12-19T01:24:15.811Z,17.67
2022-12-19T01:26:49.711Z,15.10
2022-12-19T01:29:16.891Z,17.77
2022-12-19T01:31:44.349Z,13.13
2022-12-19T01:34:11.748Z,16.42
2022-12-19T01:36:40.185Z,12.37
2022-12-19T01:39:07.988Z,14.13
2022-12-19T01:41:35.529Z,14.38
2022-12-19T01:44:06.071Z,13.55
2022-12-19T01:46:33.321Z,13.32
2022-12-19T01:49:01.748Z,12.60
2022-12-19T01:51:41.452Z,16.73
2022-12-19T01:54:13.908Z,15.40
2022-12-19T01:56:45.045Z,8.57
2022-12-19T01:59:20.744Z,13.80
2022-12-19T02:01:51.696Z,13.13
2022-12-19T02:04:22.568Z,11.50
2022-12-19T02:06:51.013Z,12.57
2022-12-19T02:09:19.012Z,13.80
2022-12-19T02:11:47.469Z,11.40
2022-12-19T02:14:15.065Z,15.33
2022-12-19T02:16:54.132Z,14.93
2022-12-19T02:19:21.604Z,15.52
2022-12-19T02:22:09.399Z,14.05
2022-12-19T02:24:57.129Z,14.02
2022-12-19T02:27:58.954Z,10.27
2022-12-19T02:30:53.352Z,14.68
2022-12-19T02:33:26.290Z,12.13
2022-12-19T02:35:57.372Z,10.32
2022-12-19T02:38:56.467Z,12.68
2022-12-19T02:41:29.962Z,15.80
2022-12-19T02:44:01.266Z,12.45
2022-12-19T02:46:31.028Z,8.38
2022-12-19T02:48:58.688Z,13.68
2022-12-19T02:51:25.880Z,13.82
2022-12-19T02:53:53.098Z,13.70
2022-12-19T02:56:28.785Z,13.05
2022-12-19T02:58:59.836Z,11.18
2022-12-19T03:01:36.048Z,9.43
2022-12-19T03:04:28.335Z,14.80
2022-12-19T03:07:12.876Z,11.90
2022-12-19T03:10:17.693Z,14.55
2022-12-19T03:12:53.799Z,10.82
2022-12-19T03:15:22.223Z,10.07
2022-12-19T03:17:49.584Z,11.00
2022-12-19T03:20:32.300Z,7.43
2022-12-19T03:22:59.804Z,12.95
2022-12-19T03:25:27.133Z,10.85
2022-12-19T03:27:55.149Z,10.77
2022-12-19T03:30:22.606Z,9.70
2022-12-19T03:32:50.188Z,12.40
2022-12-19T03:35:17.563Z,10.52
2022-12-19T03:37:45.530Z,10.10
2022-12-19T03:40:17.209Z,10.73
2022-12-19T03:43:05.315Z,10.70
2022-12-19T03:46:29.704Z,12.50
2022-12-19T03:48:56.975Z,13.45
2022-12-19T03:51:48.238Z,13.95
2022-12-19T03:54:25.612Z,14.18
2022-12-19T03:57:13.817Z,12.77
2022-12-19T03:59:48.169Z,13.10
2022-12-19T04:02:18.051Z,13.50
2022-12-19T04:04:48.456Z,9.05
2022-12-19T04:07:17.316Z,11.52
2022-12-19T04:09:45.847Z,10.48
2022-12-19T04:12:23.044Z,10.87
2022-12-19T04:14:50.637Z,12.50
2022-12-19T04:17:29.265Z,12.75
2022-12-19T04:20:19.400Z,12.43
2022-12-19T04:22:58.492Z,8.48
2022-12-19T04:25:33.961Z,11.97
2022-12-19T04:28:18.942Z,9.02
2022-12-19T04:30:47.314Z,13.18
2022-12-19T04:33:14.213Z,10.10
2022-12-19T04:35:41.287Z,12.23
2022-12-19T04:38:08.734Z,9.43
2022-12-19T04:40:40.944Z,6.30
2022-12-19T04:43:08.699Z,12.65
2022-12-19T04:45:35.949Z,8.55
2022-12-19T04:48:03.926Z,10.35
2022-12-19T04:50:32.972Z,8.80
2022-12-19T04:53:00.267Z,8.15
2022-12-19T04:55:27.609Z,11.38
2022-12-19T04:57:54.804Z,8.00
2022-12-19T05:00:22.117Z,6.88
2022-12-19T05:02:49.445Z,11.27
2022-12-19T05:05:18.165Z,7.65
2022-12-19T05:07:46.903Z,8.20
2022-12-19T05:10:14.489Z,9.43
2022-12-19T05:12:41.692Z,8.07
2022-12-19T05:15:09.231Z,10.10
2022-12-19T05:17:36.541Z,9.25
2022-12-19T05:20:03.973Z,8.25
2022-12-19T05:22:31.148Z,7.15
2022-12-19T05:24:57.917Z,9.75
2022-12-19T05:27:25.169Z,5.50
2022-12-19T05:29:52.613Z,6.13
2022-12-19T05:32:20.065Z,8.85
2022-12-19T05:34:47.215Z,6.38
2022-12-19T05:37:14.465Z,9.93
2022-12-19T05:39:41.258Z,8.90
2022-12-19T05:42:12.344Z,7.78
2022-12-19T05:44:40.112Z,8.70
2022-12-19T05:47:07.312Z,4.75
2022-12-19T05:49:34.125Z,7.32
2022-12-19T05:52:01.328Z,6.50
2022-12-19T05:54:28.713Z,7.50
2022-12-19T05:56:55.992Z,6.32
2022-12-19T05:59:23.253Z,7.45
2022-12-19T06:01:50.633Z,7.97
2022-12-19T06:04:17.961Z,9.30
2022-12-19T06:06:44.963Z,9.38
2022-12-19T06:09:12.173Z,6.70
2022-12-19T06:11:39.364Z,6.93
2022-12-19T06:14:07.547Z,9.07
2022-12-19T06:16:34.793Z,9.43
2022-12-19T06:19:02.033Z,9.55
2022-12-19T06:21:28.893Z,9.43
2022-12-19T06:23:56.162Z,5.80
2022-12-19T06:26:23.306Z,5.30
2022-12-19T06:28:52.059Z,7.87
2022-12-19T06:31:23.403Z,10.48
2022-12-19T06:33:50.774Z,7.40
2022-12-19T06:36:26.086Z,6.00
2022-12-19T06:38:54.184Z,5.53
2022-12-19T06:41:40.434Z,8.87
2022-12-19T06:44:11.434Z,8.85
2022-12-19T06:46:39.960Z,7.90
2022-12-19T06:49:07.932Z,10.48
2022-12-19T06:51:35.169Z,10.98
2022-12-19T06:54:02.427Z,7.53
2022-12-19T06:56:29.777Z,7.57
2022-12-19T06:58:57.017Z,9.43
2022-12-19T07:01:48.189Z,9.15
2022-12-19T07:04:18.635Z,7.95
2022-12-19T07:06:49.270Z,8.13
2022-12-19T07:09:17.432Z,8.00
2022-12-19T07:11:44.745Z,9.00
2022-12-19T07:14:11.584Z,8.02
2022-12-19T07:16:39.038Z,9.57
2022-12-19T07:19:07.478Z,7.43
2022-12-19T07:21:36.748Z,7.78
2022-12-19T07:24:04.348Z,7.25
2022-12-19T07:26:31.957Z,7.75
2022-12-19T07:28:59.881Z,8.73
2022-12-19T07:31:26.709Z,7.87
2022-12-19T07:33:53.947Z,7.88
2022-12-19T07:36:21.202Z,9.85
2022-12-19T07:38:49.744Z,7.40
2022-12-19T07:41:17.287Z,8.30
2022-12-19T07:43:45.649Z,5.83
2022-12-19T07:46:13.080Z,8.35
2022-12-19T07:48:40.831Z,8.57
2022-12-19T07:51:08.150Z,6.25
2022-12-19T07:53:35.316Z,9.15
2022-12-19T07:56:02.516Z,6.13
2022-12-19T07:58:30.184Z,8.73
2022-12-19T08:00:57.904Z,6.72
2022-12-19T08:03:25.424Z,6.97
2022-12-19T08:05:52.670Z,9.38
2022-12-19T08:08:20.596Z,8.80
2022-12-19T08:10:47.912Z,8.07
2022-12-19T08:13:17.784Z,8.68
2022-12-19T08:15:44.989Z,7.38
2022-12-19T08:18:12.586Z,7.28
2022-12-19T08:20:39.760Z,7.17
2022-12-19T08:23:06.995Z,8.73
2022-12-19T08:25:34.253Z,9.43
2022-12-19T08:28:01.512Z,6.38
2022-12-19T08:30:28.849Z,7.72
2022-12-19T08:32:56.114Z,8.63
2022-12-19T08:35:23.344Z,5.47
2022-12-19T08:37:50.540Z,8.55
2022-12-19T08:40:18.020Z,7.47
2022-12-19T08:42:45.312Z,7.13
2022-12-19T08:45:12.730Z,8.83
2022-12-19T08:47:40.047Z,5.18
2022-12-19T08:50:07.950Z,6.72
2022-12-19T08:52:35.461Z,6.15
2022-12-19T08:55:02.802Z,7.28
2022-12-19T08:57:30.070Z,7.40
2022-12-19T08:59:57.466Z,8.10
2022-12-19T09:02:25.943Z,6.20
2022-12-19T09:06:00.931Z,6.75
2022-12-19T09:07:40.861Z,6.75
2022-12-19T09:10:08.225Z,5.77
2022-12-19T09:12:35.515Z,7.60
2022-12-19T09:15:02.328Z,7.20
2022-12-19T09:17:29.742Z,6.47
2022-12-19T09:19:56.576Z,5.95
2022-12-19T09:22:27.667Z,6.73
2022-12-19T09:24:56.868Z,5.13
2022-12-19T09:27:24.153Z,5.95
2022-12-19T09:29:51.765Z,6.55
2022-12-19T09:32:18.992Z,5.40
2022-12-19T09:34:46.222Z,4.43
2022-12-19T09:37:16.710Z,6.63
2022-12-19T09:39:45.422Z,7.07
2022-12-19T09:42:27.595Z,5.85
2022-12-19T09:45:31.880Z,5.18
2022-12-19T09:48:01.509Z,6.27
2022-12-19T09:51:09.421Z,5.95
2022-12-19T09:53:44.355Z,5.72
2022-12-19T09:56:15.387Z,6.72
2022-12-19T09:58:52.351Z,5.38
2022-12-19T10:01:35.075Z,5.07
2022-12-19T10:04:14.194Z,4.50
2022-12-19T10:07:16.111Z,5.90
2022-12-19T10:11:36.780Z,4.53
2022-12-19T10:12:58.382Z,7.50
2022-12-19T10:15:39.995Z,6.57
2022-12-19T10:18:15.775Z,7.28
2022-12-19T10:20:52.346Z,6.22
2022-12-19T10:23:56.978Z,5.97
2022-12-19T10:26:45.033Z,4.82
2022-12-19T10:29:23.859Z,4.23
2022-12-19T10:31:53.990Z,6.05
2022-12-19T10:34:24.258Z,5.03
2022-12-19T10:37:24.377Z,6.13
2022-12-19T10:39:54.993Z,5.20
2022-12-19T10:42:57.371Z,5.23
2022-12-19T10:45:32.614Z,4.53
2022-12-19T10:47:59.991Z,5.18
2022-12-19T10:50:29.744Z,5.78
2022-12-19T10:53:11.232Z,5.15
2022-12-19T10:55:38.589Z,4.90
2022-12-19T10:58:22.980Z,3.88
2022-12-19T11:01:24.569Z,5.00
2022-12-19T11:04:31.316Z,5.10
2022-12-19T11:07:05.051Z,5.22
2022-12-19T11:09:37.887Z,6.70
2022-12-19T11:15:46.611Z,4.97
2022-12-19T11:19:04.668Z,5.22
2022-12-19T11:27:23.243Z,5.00
2022-12-19T11:29:25.823Z,5.55
2022-12-19T11:30:37.768Z,5.78
2022-12-19T11:30:40.811Z,5.53
2022-12-19T11:32:50.901Z,4.47
2022-12-19T11:35:25.449Z,5.30
2022-12-19T11:38:06.070Z,5.03
2022-12-19T11:40:44.714Z,4.25
2022-12-19T11:43:47.403Z,6.07
2022-12-19T11:46:43.517Z,6.28
2022-12-19T11:49:25.206Z,5.40
2022-12-19T11:52:06.191Z,4.23
2022-12-19T11:54:33.389Z,4.57
2022-12-19T11:57:00.652Z,4.20
2022-12-19T11:59:38.504Z,4.18
2022-12-19T12:02:40.729Z,4.65
2022-12-19T12:05:47.704Z,5.20
2022-12-19T12:12:25.776Z,5.20
2022-12-19T12:22:27.814Z,4.90
2022-12-19T12:25:20.085Z,4.32
2022-12-19T12:31:01.643Z,4.65
2022-12-19T12:31:26.615Z,4.07
2022-12-19T12:31:47.568Z,4.35
2022-12-19T12:32:06.520Z,5.78
2022-12-19T12:35:13.606Z,5.60
2022-12-19T12:35:46.910Z,5.00
2022-12-19T12:40:10.695Z,4.72
2022-12-19T12:43:17.422Z,4.03
2022-12-19T12:45:45.424Z,4.75
2022-12-19T12:48:41.386Z,5.63
2022-12-19T12:51:09.880Z,5.00
2022-12-19T12:53:40.883Z,3.60
2022-12-19T12:56:10.522Z,4.43
2022-12-19T12:58:54.374Z,4.80
2022-12-19T13:01:40.242Z,5.20
2022-12-19T13:04:13.440Z,4.07
2022-12-19T13:06:40.676Z,6.40
2022-12-19T13:09:13.209Z,4.55
2022-12-19T13:12:37.025Z,4.18
2022-12-19T13:15:22.458Z,4.43
2022-12-19T13:17:49.640Z,3.43
2022-12-19T13:20:27.618Z,3.78
2022-12-19T13:23:00.246Z,4.55
2022-12-19T13:25:27.504Z,5.00
2022-12-19T13:28:23.117Z,3.72
2022-12-19T13:31:20.961Z,4.70
2022-12-19T13:33:56.190Z,4.10
2022-12-19T13:39:49.940Z,3.80
2022-12-19T13:39:59.352Z,3.97
2022-12-19T13:42:45.895Z,4.20
2022-12-19T13:45:30.880Z,4.37
2022-12-19T13:48:00.778Z,4.45
2022-12-19T13:50:28.024Z,3.53
2022-12-19T13:52:55.325Z,3.80
2022-12-19T13:55:22.778Z,15.02
2022-12-19T13:57:53.439Z,7.13
2022-12-19T14:00:36.049Z,3.38
2022-12-19T14:03:03.426Z,4.55
2022-12-19T14:06:16.057Z,6.53
2022-12-19T14:08:24.935Z,6.22
2022-12-19T14:11:37.133Z,6.27
2022-12-19T14:14:25.786Z,5.03
2022-12-19T14:16:56.267Z,5.88
2022-12-19T14:19:23.617Z,5.05
2022-12-19T14:22:11.847Z,4.38
2022-12-19T14:24:38.577Z,4.10
2022-12-19T14:28:18.320Z,3.95
2022-12-19T14:30:28.805Z,4.97
2022-12-19T14:33:43.986Z,4.00
2022-12-19T14:36:07.516Z,3.78
2022-12-19T14:39:19.620Z,4.20
2022-12-19T14:42:04.911Z,6.00
2022-12-19T14:52:51.234Z,4.60
2022-12-19T14:54:11.539Z,3.53
2022-12-19T14:54:37.575Z,6.83
2022-12-19T14:54:38.006Z,7.68
2022-12-19T14:56:53.738Z,6.25
2022-12-19T14:59:31.858Z,3.78
2022-12-19T15:02:12.244Z,5.03
2022-12-19T15:04:52.199Z,5.00
2022-12-19T15:07:25.101Z,5.47
2022-12-19T15:11:05.357Z,4.90
2022-12-19T15:14:53.290Z,3.80
2022-12-19T15:16:05.552Z,4.97
2022-12-19T15:18:32.988Z,3.42
2022-12-19T15:21:05.583Z,3.80
2022-12-19T15:23:33.067Z,3.60
2022-12-19T15:26:07.896Z,3.97
2022-12-19T15:28:41.540Z,3.70
2022-12-19T15:31:38.460Z,3.88
2022-12-19T15:37:04.756Z,4.88
2022-12-19T15:39:32.164Z,3.42
2022-12-19T15:42:00.408Z,3.38
2022-12-19T15:44:34.381Z,3.90
2022-12-19T15:47:03.842Z,3.77
2022-12-19T15:49:32.803Z,4.40
2022-12-19T15:52:00.104Z,4.78
2022-12-19T15:57:38.361Z,4.60
2022-12-19T16:00:21.037Z,3.50
2022-12-19T16:05:35.633Z,5.95
2022-12-19T16:08:03.173Z,3.65
2022-12-19T16:10:30.436Z,3.67
2022-12-19T16:12:58.209Z,3.03
2022-12-19T16:15:31.219Z,4.05
2022-12-19T16:17:59.590Z,4.53
2022-12-19T16:20:30.469Z,4.63
2022-12-19T16:22:57.968Z,4.45
2022-12-19T16:25:32.816Z,5.03
2022-12-19T16:28:00.387Z,3.90
2022-12-19T16:30:33.176Z,4.25
2022-12-19T16:33:00.739Z,3.28
2022-12-19T16:36:02.602Z,2.60
2022-12-19T16:38:17.305Z,3.67
2022-12-19T16:40:45.277Z,3.72
2022-12-19T16:43:36.741Z,3.53
2022-12-19T16:46:06.052Z,4.47
2022-12-19T16:48:35.607Z,3.20
2022-12-19T16:51:03.011Z,3.00
2022-12-19T16:53:30.265Z,3.92
2022-12-19T16:55:59.390Z,2.85
2022-12-19T16:58:28.667Z,2.90
2022-12-19T17:00:56.367Z,3.53
2022-12-19T17:03:36.106Z,3.83
2022-12-19T17:06:03.812Z,2.33
2022-12-19T17:08:32.404Z,6.22
2022-12-19T17:10:59.931Z,4.45
2022-12-19T17:13:27.086Z,5.13
2022-12-19T17:15:56.956Z,3.70
2022-12-19T17:18:31.578Z,4.88
2022-12-19T17:20:58.965Z,3.50
2022-12-19T17:23:29.064Z,4.53
2022-12-19T17:25:56.412Z,4.15
2022-12-19T17:28:23.694Z,4.97
2022-12-19T17:30:54.302Z,4.90
2022-12-19T17:33:28.987Z,3.90
2022-12-19T17:35:56.270Z,3.90
2022-12-19T17:38:23.549Z,3.38
2022-12-19T17:40:50.785Z,4.27
2022-12-19T17:43:18.030Z,3.83
2022-12-19T17:45:45.330Z,4.43
2022-12-19T17:48:25.634Z,4.20
2022-12-19T17:50:53.129Z,3.90
2022-12-19T17:53:20.366Z,2.70
2022-12-19T17:55:47.422Z,4.13
2022-12-19T17:58:14.670Z,7.10
2022-12-19T18:00:42.297Z,24.17
2022-12-19T18:03:25.457Z,5.70
2022-12-19T18:05:54.749Z,6.03
2022-12-19T18:08:26.516Z,7.22
2022-12-19T18:10:56.448Z,4.80
2022-12-19T18:13:24.517Z,4.35
2022-12-19T18:15:52.127Z,4.78
2022-12-19T18:18:22.164Z,4.27
2022-12-19T18:20:49.591Z,9.05
2022-12-19T18:23:22.343Z,3.22
2022-12-19T18:25:51.045Z,4.07
2022-12-19T18:28:20.717Z,4.05
2022-12-19T18:30:48.395Z,4.37
2022-12-19T18:33:23.748Z,3.42
2022-12-19T18:35:51.181Z,2.97
2022-12-19T18:38:23.358Z,3.40
2022-12-19T18:40:54.350Z,3.83
2022-12-19T18:43:21.937Z,4.03
2022-12-19T18:45:51.926Z,3.88
2022-12-19T18:48:19.140Z,5.32
2022-12-19T18:50:46.355Z,6.20
2022-12-19T18:53:17.453Z,11.82
2022-12-19T18:55:44.918Z,18.83
2022-12-19T18:58:12.153Z,5.03
2022-12-19T19:00:39.968Z,3.78
2022-12-19T19:03:14.949Z,5.20
2022-12-19T19:05:43.051Z,3.25
2022-12-19T19:08:21.833Z,3.60
2022-12-19T19:10:58.185Z,5.13
2022-12-19T19:13:26.104Z,4.63
2022-12-19T19:16:01.744Z,3.72
2022-12-19T19:18:37.569Z,8.13
2022-12-19T19:21:07.013Z,3.83
2022-12-19T19:23:37.914Z,4.72
2022-12-19T19:26:05.684Z,11.00
2022-12-19T19:28:32.965Z,14.00
2022-12-19T19:31:01.367Z,9.18
2022-12-19T19:33:35.966Z,8.37
2022-12-19T19:36:12.133Z,9.23
2022-12-19T19:38:43.123Z,6.85
2022-12-19T19:41:10.604Z,4.57
2022-12-19T19:43:37.891Z,4.57
2022-12-19T19:46:05.640Z,3.83
2022-12-19T19:48:33.169Z,4.40
2022-12-19T19:51:00.435Z,4.38
2022-12-19T19:53:27.836Z,5.80
2022-12-19T19:56:01.286Z,4.35
2022-12-19T19:58:29.506Z,4.40
2022-12-19T20:00:57.152Z,3.80
2022-12-19T20:03:25.143Z,3.95
2022-12-19T20:06:02.684Z,4.72
2022-12-19T20:08:37.069Z,5.13
2022-12-19T20:11:07.052Z,4.60
2022-12-19T20:13:36.615Z,5.53
2022-12-19T20:16:21.968Z,3.72
2022-12-19T20:18:51.775Z,5.28
2022-12-19T20:21:19.784Z,5.00
2022-12-19T20:23:46.809Z,5.90
2022-12-19T20:26:16.451Z,7.10
2022-12-19T20:28:49.119Z,8.90
2022-12-19T20:31:22.035Z,4.38
2022-12-19T20:33:49.848Z,5.03
2022-12-19T20:36:17.593Z,4.40
2022-12-19T20:38:45.017Z,3.72
2022-12-19T20:41:12.987Z,4.25
2022-12-19T20:43:40.212Z,5.30
2022-12-19T20:46:12.833Z,3.97
2022-12-19T20:48:40.406Z,4.27
2022-12-19T20:51:08.050Z,4.25
2022-12-19T20:53:37.550Z,3.65
2022-12-19T20:56:06.019Z,4.35
2022-12-19T20:58:35.337Z,4.03
2022-12-19T21:01:22.228Z,4.40
2022-12-19T21:03:49.809Z,4.53
2022-12-19T21:06:19.200Z,4.40
2022-12-19T21:08:46.929Z,4.15
2022-12-19T21:11:15.634Z,3.63
2022-12-19T21:13:43.071Z,3.63
2022-12-19T21:16:14.668Z,4.47
2022-12-19T21:18:42.779Z,3.55
2022-12-19T21:21:19.614Z,4.00
2022-12-19T21:23:47.414Z,3.67
2022-12-19T21:26:14.842Z,3.63
2022-12-19T21:28:42.451Z,4.15
2022-12-19T21:31:20.663Z,3.95
2022-12-19T21:33:48.489Z,4.25
2022-12-19T21:36:20.626Z,4.13
2022-12-19T21:38:53.717Z,3.43
2022-12-19T21:41:22.260Z,2.97
2022-12-19T21:43:53.746Z,4.05
2022-12-19T21:46:26.141Z,4.07
2022-12-19T21:48:54.627Z,4.90
2022-12-19T21:51:23.596Z,3.87
2022-12-19T21:53:54.864Z,3.03
2022-12-19T21:56:40.732Z,4.28
2022-12-19T21:59:12.300Z,4.28
2022-12-19T22:01:41.275Z,4.22
2022-12-19T22:04:15.882Z,3.07
2022-12-19T22:06:43.299Z,3.45
2022-12-19T22:09:14.442Z,3.00
2022-12-19T22:11:41.453Z,4.28
2022-12-19T22:14:10.349Z,4.20
2022-12-19T22:16:37.671Z,4.03
2022-12-19T22:19:05.457Z,3.53
2022-12-19T22:21:32.920Z,3.67
2022-12-19T22:24:01.404Z,3.17
2022-12-19T22:26:30.661Z,2.90
2022-12-19T22:28:58.315Z,3.70
2022-12-19T22:31:30.745Z,3.53
2022-12-19T22:34:03.208Z,4.18
2022-12-19T22:36:32.135Z,3.65
2022-12-19T22:39:01.291Z,4.30
2022-12-19T22:41:29.234Z,3.83
2022-12-19T22:43:56.729Z,3.97
2022-12-19T22:46:31.835Z,4.47
2022-12-19T22:49:01.153Z,4.55
2022-12-19T22:51:29.672Z,4.20
2022-12-19T22:53:57.312Z,3.00
2022-12-19T22:56:28.025Z,3.90
2022-12-19T22:58:58.188Z,2.40
2022-12-19T23:01:37.019Z,3.35
2022-12-19T23:04:05.353Z,3.83
2022-12-19T23:06:34.615Z,3.73
2022-12-19T23:09:01.938Z,3.25
2022-12-19T23:11:33.279Z,4.05
2022-12-19T23:14:01.726Z,3.25
2022-12-19T23:16:29.179Z,3.80
2022-12-19T23:18:56.166Z,3.43
2022-12-19T23:21:24.404Z,3.38
2022-12-19T23:23:54.244Z,3.70
2022-12-19T23:26:27.174Z,3.53
2022-12-19T23:29:07.137Z,3.88
2022-12-19T23:31:34.484Z,3.80
2022-12-19T23:34:01.904Z,2.90
2022-12-19T23:39:16.270Z,4.15
2022-12-19T23:41:43.823Z,3.78
2022-12-19T23:44:11.440Z,3.13
2022-12-19T23:46:38.830Z,3.38
2022-12-19T23:49:06.213Z,4.20
2022-12-19T23:51:33.251Z,3.97
2022-12-19T23:54:00.547Z,4.03
2022-12-19T23:56:29.884Z,3.60
2022-12-19T23:58:57.875Z,3.55
